Latest Weather Observations for Mitta Valley - Diggers

IDV60801

Issued at 8:22 am EST Friday 21 September 2018 (issued every 10 minutes, with the page automatically refreshed every 10 minutes)

About weather observations | Map of weather stations | Latest weather observations for VIC | Other Formats
Station Details ID: 250031 Name: VICTORIAN PORTABLE K Lat: -36.52 Lon: 147.25 Height: 420.0 m
Data from the previous 72 hours. | See also: Recent months for locations in Victoria
Date/Time
EST
Temp
°C
App
Temp
°C
Dew
Point
°C
Rel
Hum
%
Delta-T
°C
Wind Press
QNH
hPa
Press
MSL
hPa
Rain since
9am
mm
Dir  Spd
km/h
Gust
km/h
Spd
kts
Gust
kts
21/08:10am 12.4 10.4 4.3 57 3.8 W 4 9 2 5 - - 0.0
21/08:00am 11.8 9.7 4.1 59 3.5 WNW 4 11 2 6 - - 0.0
21/07:50am 11.4 9.4 4.2 61 3.3 W 4 11 2 6 - - 0.0
21/07:40am 11.1 9.0 4.1 62 3.2 W 4 9 2 5 - - 0.0
21/07:30am 10.4 8.7 4.2 65 2.8 W 2 7 1 4 - - 0.0
21/07:20am 10.0 7.9 4.1 67 2.7 W 4 7 2 4 - - 0.0
21/07:10am 9.9 7.8 4.1 67 2.6 W 4 7 2 4 - - 0.0
21/07:00am 9.8 7.7 4.1 67 2.6 WNW 4 6 2 3 - - 0.0
21/06:50am 9.7 7.6 4.0 67 2.6 WNW 4 9 2 5 - - 0.0
21/06:30am 9.4 7.3 3.9 68 2.5 W 4 7 2 4 - - 0.0
21/06:10am 9.2 7.1 3.8 69 2.4 W 4 7 2 4 - - 0.0
21/06:00am 9.1 7.0 3.8 69 2.4 W 4 9 2 5 - - 0.0
21/05:50am 9.2 7.5 3.9 69 2.4 WSW 2 7 1 4 - - 0.0
21/05:40am 9.1 7.4 3.9 70 2.3 WNW 2 4 1 2 - - 0.0
21/05:30am 9.1 7.4 3.8 69 2.4 W 2 4 1 2 - - 0.0
21/05:20am 9.0 7.3 3.9 70 2.3 N 2 4 1 2 - - 0.0
21/05:10am 8.9 7.2 3.9 71 2.2 SSW 2 7 1 4 - - 0.0
21/05:00am 8.8 6.7 3.8 71 2.2 W 4 7 2 4 - - 0.0
21/04:50am 8.9 7.2 3.9 71 2.2 W 2 7 1 4 - - 0.0
21/04:40am 8.8 7.1 3.9 71 2.2 NNW 2 4 1 2 - - 0.0
21/04:30am 8.9 7.2 3.9 71 2.2 S 2 6 1 3 - - 0.0
21/04:20am 8.9 7.2 4.0 71 2.2 S 2 6 1 3 - - 0.0
21/04:10am 8.8 7.1 4.1 72 2.1 NW 2 9 1 5 - - 0.0
21/04:00am 8.6 6.9 4.0 73 2.1 W 2 7 1 4 - - 0.0
21/03:50am 8.5 6.8 3.8 72 2.1 WNW 2 6 1 3 - - 0.0
21/03:40am 8.4 6.7 3.8 73 2.0 WNW 2 6 1 3 - - 0.0
21/03:30am 8.3 6.5 3.7 73 2.0 NNW 2 7 1 4 - - 0.0
21/03:20am 8.3 6.6 3.8 73 2.0 WNW 2 6 1 3 - - 0.0
21/03:10am 8.3 6.6 3.9 74 2.0 S 2 6 1 3 - - 0.0
21/03:00am 8.5 6.8 4.1 74 2.0 S 2 6 1 3 - - 0.0
21/02:50am 8.6 6.9 4.1 73 2.0 NW 2 6 1 3 - - 0.0
21/02:40am 8.7 7.1 4.3 74 2.0 NW 2 7 1 4 - - 0.0
21/02:30am 8.9 7.3 4.4 73 2.0 NNW 2 6 1 3 - - 0.0
21/02:20am 9.0 7.4 4.4 73 2.1 W 2 6 1 3 - - 0.0
21/02:10am 9.1 7.5 4.4 72 2.1 W 2 6 1 3 - - 0.0
21/02:00am 9.0 7.7 4.3 72 2.1 CALM 0 4 0 2 - - 0.0
21/01:50am 9.1 7.5 4.3 72 2.2 W 2 4 1 2 - - 0.0
21/01:40am 9.1 7.4 4.2 71 2.2 W 2 6 1 3 - - 0.0
21/01:30am 9.1 7.4 4.2 71 2.2 W 2 4 1 2 - - 0.0
21/01:20am 9.3 7.7 4.5 72 2.2 WSW 2 4 1 2 - - 0.0
21/01:00am 9.3 8.1 4.8 73 2.1 CALM 0 2 0 1 - - 0.0
21/12:50am 9.5 8.0 4.9 73 2.1 W 2 6 1 3 - - 0.0
21/12:40am 9.8 8.3 5.0 72 2.2 W 2 6 1 3 - - 0.0
21/12:30am 10.0 8.2 5.3 72 2.2 W 4 7 2 4 - - 0.0
21/12:20am 10.2 8.4 5.5 72 2.2 W 4 7 2 4 - - 0.0
21/12:10am 10.3 8.9 5.3 71 2.3 W 2 6 1 3 - - 0.0
21/12:00am 10.4 9.4 5.4 71 2.3 CALM 0 6 0 3 - - 0.0
 
Date/Time
EST
Temp
°C
App
Temp
°C
Dew
Point
°C
Rel
Hum
%
Delta-T
°C
Wind Press
QNH
hPa
Press
MSL
hPa
Rain since
9am
mm
Dir  Spd
km/h
Gust
km/h
Spd
kts
Gust
kts
20/11:50pm 10.7 9.3 5.4 70 2.5 W 2 4 1 2 - - 0.0
20/11:40pm 10.9 9.5 5.4 69 2.6 WSW 2 6 1 3 - - 0.0
20/11:30pm 10.8 9.4 5.3 69 2.6 WSW 2 6 1 3 - - 0.0
20/11:20pm 10.7 8.8 5.1 68 2.6 W 4 9 2 5 - - 0.0
20/11:10pm 10.9 9.0 5.0 67 2.7 W 4 7 2 4 - - 0.0
20/11:00pm 11.0 9.1 4.9 66 2.8 W 4 6 2 3 - - 0.0
20/10:50pm 11.0 9.5 5.2 67 2.7 WSW 2 7 1 4 - - 0.0
20/10:40pm 11.1 9.7 5.5 68 2.6 SW 2 4 1 2 - - 0.0
20/10:30pm 11.2 9.9 5.9 70 2.5 SW 2 4 1 2 - - 0.0
20/10:20pm 11.5 9.9 6.5 71 2.4 WSW 4 9 2 5 - - 0.0
20/10:10pm 11.2 10.1 7.1 76 2.0 WSW 2 6 1 3 - - 0.0
20/09:50pm 11.3 10.6 6.8 74 2.2 CALM 0 2 0 1 - - 0.0
20/09:40pm 11.6 10.8 6.7 72 2.4 CALM 0 4 0 2 - - 0.0
20/09:30pm 11.8 10.6 6.3 69 2.7 SW 2 4 1 2 - - 0.0
20/09:20pm 12.1 10.8 6.2 67 2.8 SW 2 4 1 2 - - 0.0
20/09:10pm 12.4 10.9 5.1 61 3.4 SSW 2 4 1 2 - - 0.0
20/09:00pm 12.8 11.1 4.0 55 4.1 SW 2 6 1 3 - - 0.0
20/08:50pm 13.1 11.3 3.5 52 4.4 SW 2 6 1 3 - - 0.0
20/08:40pm 13.3 11.5 3.3 50 4.6 SW 2 6 1 3 - - 0.0
20/08:30pm 13.5 11.7 3.2 49 4.7 WSW 2 6 1 3 - - 0.0
20/08:20pm 13.5 11.6 3.1 49 4.7 WSW 2 4 1 2 - - 0.0
20/08:10pm 13.3 11.8 3.1 50 4.6 CALM 0 4 0 2 - - 0.0
20/08:00pm 13.0 11.5 3.1 51 4.5 CALM 0 2 0 1 - - 0.0
20/07:50pm 13.1 11.6 2.9 50 4.6 CALM 0 6 0 3 - - 0.0
20/07:40pm 13.0 11.4 2.5 49 4.7 CALM 0 4 0 2 - - 0.0
20/07:30pm 12.6 11.1 3.2 52 4.3 CALM 0 2 0 1 - - 0.0
20/07:20pm 12.9 11.4 3.0 51 4.5 CALM 0 2 0 1 - - 0.0
20/07:10pm 13.3 11.9 3.4 51 4.5 CALM 0 0 0 0 - - 0.0
20/07:00pm 13.4 11.9 2.9 49 4.8 CALM 0 0 0 0 - - 0.0
20/06:50pm 13.2 11.7 2.8 49 4.7 CALM 0 0 0 0 - - 0.0
20/06:20pm 14.7 13.1 2.3 43 5.6 CALM 0 2 0 1 - - 0.0
20/06:10pm 15.2 13.5 2.1 41 5.9 CALM 0 2 0 1 - - 0.0
20/06:00pm 15.5 13.8 2.1 40 6.1 CALM 0 2 0 1 - - 0.0
20/05:50pm 16.1 14.4 2.1 39 6.4 CALM 0 4 0 2 - - 0.0
20/05:40pm 16.0 14.3 1.8 38 6.4 CALM 0 4 0 2 - - 0.0
20/05:30pm 15.7 14.0 1.9 39 6.3 CALM 0 2 0 1 - - 0.0
20/05:20pm 16.4 14.7 1.7 37 6.7 CALM 0 4 0 2 - - 0.0
20/05:10pm 17.8 15.7 1.4 33 7.5 SE 2 6 1 3 - - 0.0
20/05:00pm 17.4 15.3 1.6 34 7.2 E 2 6 1 3 - - 0.0
20/04:50pm 17.3 15.2 1.5 34 7.2 ESE 2 6 1 3 - - 0.0
20/04:40pm 17.0 14.9 1.7 35 7.0 WSW 2 4 1 2 - - 0.0
20/04:30pm 17.1 15.0 1.5 35 7.1 ESE 2 6 1 3 - - 0.0
20/04:20pm 17.8 15.7 1.6 33 7.4 ESE 2 7 1 4 - - 0.0
20/04:10pm 18.6 16.5 1.7 32 7.8 E 2 6 1 3 - - 0.0
20/04:00pm 19.5 17.4 1.7 30 8.3 NNW 2 6 1 3 - - 0.0
20/03:50pm 18.7 16.6 1.7 32 7.9 NNW 2 7 1 4 - - 0.0
20/03:40pm 20.5 18.4 1.9 29 8.8 ESE 2 7 1 4 - - 0.0
20/03:30pm 21.0 18.9 2.0 28 9.0 SW 2 6 1 3 - - 0.0
20/03:20pm 21.8 19.8 2.1 27 9.4 NW 2 4 1 2 - - 0.0
20/03:10pm 19.8 17.4 2.1 31 8.3 SSE 4 9 2 5 - - 0.0
20/03:00pm 20.4 18.0 2.4 30 8.6 ESE 4 11 2 6 - - 0.0
20/02:50pm 20.4 18.0 2.4 30 8.6 E 4 9 2 5 - - 0.0
20/02:30pm 21.1 19.2 2.6 29 8.9 ESE 2 6 1 3 - - 0.0
20/02:20pm 20.0 18.1 2.6 31 8.3 E 2 6 1 3 - - 0.0
20/02:10pm 17.6 15.6 2.5 36 7.0 E 2 7 1 4 - - 0.0
20/02:00pm 18.1 15.7 2.4 35 7.3 E 4 9 2 5 - - 0.0
20/01:50pm 18.1 16.2 2.8 36 7.2 E 2 7 1 4 - - 0.0
20/01:40pm 18.0 16.0 2.5 35 7.2 NE 2 9 1 5 - - 0.0
20/01:30pm 18.5 16.6 2.7 35 7.4 SSE 2 7 1 4 - - 0.0
20/01:20pm 16.7 14.8 2.7 39 6.5 SE 2 7 1 4 - - 0.0
20/01:10pm 16.5 14.2 2.8 40 6.4 E 4 11 2 6 - - 0.0
20/01:00pm 18.9 16.9 2.4 33 7.8 SSW 2 4 1 2 - - 0.0
20/12:50pm 15.9 14.0 2.8 41 6.1 WSW 2 4 1 2 - - 0.0
20/12:40pm 15.6 13.7 2.7 42 5.9 S 2 4 1 2 - - 0.0
20/12:30pm 16.2 14.3 3.1 41 6.1 WSW 2 6 1 3 - - 0.0
20/12:20pm 16.0 14.1 3.1 42 6.0 S 2 4 1 2 - - 0.0
20/12:00pm 16.2 14.4 3.2 41 6.1 NNW 2 6 1 3 - - 0.0
20/11:50am 17.1 15.3 3.2 39 6.5 WNW 2 6 1 3 - - 0.0
20/11:40am 17.5 15.6 2.7 37 6.9 SW 2 6 1 3 - - 0.0
20/11:30am 17.8 15.9 2.9 37 7.0 S 2 4 1 2 - - 0.0
20/11:20am 15.7 13.9 3.7 44 5.6 W 2 7 1 4 - - 0.0
20/11:10am 15.0 12.8 3.6 46 5.3 SW 4 15 2 8 - - 0.0
20/10:50am 15.5 13.4 1.5 38 6.3 SW 2 6 1 3 - - 0.0
20/10:40am 16.5 13.6 1.5 36 6.8 SW 6 19 3 10 - - 0.0
20/10:30am 16.2 13.7 1.6 37 6.6 SW 4 13 2 7 - - 0.0
20/10:20am 15.0 12.2 1.9 41 5.9 WSW 6 17 3 9 - - 0.0
20/10:10am 16.0 13.5 1.4 37 6.6 SW 4 11 2 6 - - 0.0
20/10:00am 15.5 13.0 1.8 39 6.2 WSW 4 15 2 8 - - 0.0
20/09:50am 15.0 12.2 2.1 41 5.8 SW 6 11 3 6 - - 0.0
20/09:40am 15.8 13.4 2.1 39 6.2 WSW 4 11 2 6 - - 0.0
20/09:30am 14.2 11.5 2.8 46 5.2 W 6 15 3 8 - - 0.0
20/09:20am 13.4 10.7 2.8 48 4.8 W 6 15 3 8 - - 0.0
20/09:10am 13.4 10.7 2.9 49 4.8 W 6 13 3 7 - - 0.0
20/09:00am 12.9 10.3 3.1 51 4.5 WNW 6 13 3 7 - - 0.0
20/08:50am 12.5 10.2 2.9 52 4.3 W 4 15 2 8 - - 0.0
20/08:20am 11.0 8.3 2.7 56 3.7 WNW 6 19 3 10 - - 0.0
20/08:10am 10.4 7.7 2.5 58 3.5 W 6 15 3 8 - - 0.0
20/08:00am 10.1 7.8 2.5 59 3.3 WNW 4 15 2 8 - - 0.0
20/07:50am 9.9 7.5 2.2 59 3.3 NNW 4 9 2 5 - - 0.0
20/07:40am 9.0 6.6 1.9 61 3.0 WNW 4 9 2 5 - - 0.0
20/07:30am 8.5 6.4 1.7 62 2.9 NW 2 7 1 4 - - 0.0
20/07:20am 7.9 5.8 1.5 64 2.7 WNW 2 7 1 4 - - 0.0
20/07:10am 7.4 5.2 1.2 65 2.6 NNW 2 7 1 4 - - 0.0
20/07:00am 6.8 4.6 1.0 66 2.4 WNW 2 7 1 4 - - 0.0
20/06:50am 6.3 4.1 0.9 68 2.2 W 2 7 1 4 - - 0.0
20/06:40am 5.9 3.7 0.9 70 2.0 N 2 6 1 3 - - 0.0
20/06:30am 5.5 3.3 0.8 72 1.9 W 2 4 1 2 - - 0.0
20/06:20am 5.4 3.1 0.7 72 1.9 WNW 2 7 1 4 - - 0.0
20/06:10am 5.3 2.7 0.8 73 1.8 WNW 4 7 2 4 - - 0.0
20/06:00am 5.3 3.0 0.7 72 1.8 W 2 7 1 4 - - 0.0
20/05:40am 5.4 2.8 0.7 72 1.9 W 4 7 2 4 - - 0.0
20/05:30am 5.3 3.1 0.8 73 1.8 W 2 4 1 2 - - 0.0
20/05:20am 5.3 3.1 0.8 73 1.8 WNW 2 4 1 2 - - 0.0
20/05:10am 5.4 3.2 0.8 72 1.8 W 2 6 1 3 - - 0.0
20/05:00am 5.4 3.2 0.9 73 1.8 NW 2 4 1 2 - - 0.0
20/04:50am 5.4 3.2 0.9 73 1.8 W 2 6 1 3 - - 0.0
20/04:40am 5.4 3.2 0.9 73 1.8 WSW 2 4 1 2 - - 0.0
20/04:30am 5.6 3.4 1.0 72 1.9 W 2 6 1 3 - - 0.0
20/04:20am 5.6 3.4 1.0 72 1.9 W 2 6 1 3 - - 0.0
20/04:10am 5.6 3.4 0.9 72 1.9 W 2 7 1 4 - - 0.0
20/04:00am 5.7 3.5 0.9 71 1.9 W 2 6 1 3 - - 0.0
20/03:50am 5.7 3.1 1.0 72 1.9 W 4 7 2 4 - - 0.0
20/03:40am 5.6 3.0 1.0 72 1.9 W 4 7 2 4 - - 0.0
20/03:30am 5.5 2.9 0.9 72 1.9 W 4 7 2 4 - - 0.0
20/03:20am 5.5 2.9 0.9 72 1.9 W 4 7 2 4 - - 0.0
20/03:10am 5.5 2.9 0.8 72 1.9 W 4 7 2 4 - - 0.0
20/03:00am 5.5 2.9 0.8 72 1.9 W 4 7 2 4 - - 0.0
20/02:50am 5.5 2.9 0.8 72 1.9 W 4 7 2 4 - - 0.0
20/02:40am 5.7 3.1 0.9 71 1.9 W 4 9 2 5 - - 0.0
20/02:30am 5.9 3.3 1.0 71 2.0 W 4 7 2 4 - - 0.0
20/02:20am 5.9 3.3 1.1 71 1.9 W 4 7 2 4 - - 0.0
20/02:10am 6.0 3.8 1.2 71 2.0 WNW 2 6 1 3 - - 0.0
20/02:00am 6.0 3.8 1.2 71 2.0 WNW 2 7 1 4 - - 0.0
20/01:50am 6.1 3.9 1.1 70 2.0 W 2 6 1 3 - - 0.0
20/01:40am 6.2 3.6 1.1 70 2.1 W 4 6 2 3 - - 0.0
20/01:30am 6.3 3.7 1.1 69 2.1 W 4 7 2 4 - - 0.0
20/01:20am 6.5 3.9 1.2 69 2.2 W 4 9 2 5 - - 0.0
20/01:10am 6.5 3.9 1.2 69 2.2 W 4 9 2 5 - - 0.0
20/01:00am 6.6 4.0 1.2 68 2.2 W 4 9 2 5 - - 0.0
20/12:50am 6.6 4.0 1.2 68 2.2 W 4 11 2 6 - - 0.0
20/12:40am 6.6 3.7 1.3 69 2.2 W 6 9 3 5 - - 0.0
20/12:30am 6.9 4.0 1.6 69 2.2 W 6 9 3 5 - - 0.0
20/12:20am 7.1 4.6 1.8 69 2.2 W 4 9 2 5 - - 0.0
20/12:10am 7.3 4.9 2.0 69 2.2 W 4 7 2 4 - - 0.0
20/12:00am 7.5 5.1 2.3 69 2.2 W 4 7 2 4 - - 0.0
 
Date/Time
EST
Temp
°C
App
Temp
°C
Dew
Point
°C
Rel
Hum
%
Delta-T
°C
Wind Press
QNH
hPa
Press
MSL
hPa
Rain since
9am
mm
Dir  Spd
km/h
Gust
km/h
Spd
kts
Gust
kts
19/11:50pm 7.6 5.3 2.5 70 2.2 W 4 9 2 5 - - 0.0
19/11:40pm 7.8 5.5 2.7 70 2.2 W 4 7 2 4 - - 0.0
19/11:30pm 7.9 6.0 2.9 70 2.2 W 2 7 1 4 - - 0.0
19/11:20pm 8.1 5.8 3.0 70 2.2 W 4 7 2 4 - - 0.0
19/11:10pm 8.1 5.9 3.2 71 2.1 WSW 4 6 2 3 - - 0.0
19/11:00pm 8.2 6.0 3.3 71 2.1 W 4 7 2 4 - - 0.0
19/10:40pm 8.5 6.7 3.6 71 2.2 W 2 7 1 4 - - 0.0
19/10:30pm 8.7 6.5 3.6 70 2.3 W 4 9 2 5 - - 0.0
19/10:20pm 8.9 7.1 3.4 68 2.4 WNW 2 7 1 4 - - 0.0
19/10:10pm 9.0 7.1 3.0 66 2.6 WNW 2 6 1 3 - - 0.0
19/10:00pm 9.1 7.2 2.9 65 2.7 W 2 7 1 4 - - 0.0
19/09:50pm 9.2 7.3 2.8 64 2.8 NNW 2 4 1 2 - - 0.0
19/09:40pm 9.3 7.7 2.7 63 2.9 CALM 0 4 0 2 - - 0.0
19/09:30pm 9.4 7.8 2.6 62 3.0 CALM 0 4 0 2 - - 0.0
19/09:20pm 9.5 7.9 2.4 61 3.1 CALM 0 4 0 2 - - 0.0
19/09:00pm 8.8 7.2 2.5 64 2.7 CALM 0 2 0 1 - - 0.0
19/08:50pm 9.5 7.9 2.5 61 3.0 CALM 0 2 0 1 - - 0.0
19/08:40pm 9.8 8.2 2.3 59 3.3 CALM 0 2 0 1 - - 0.0
19/08:20pm 9.7 7.7 2.4 60 3.2 W 2 4 1 2 - - 0.0
19/08:10pm 9.9 7.9 2.5 60 3.2 W 2 6 1 3 - - 0.0
19/08:00pm 10.2 8.3 2.7 59 3.3 W 2 6 1 3 - - 0.0
19/07:50pm 10.3 8.8 2.8 59 3.3 CALM 0 2 0 1 - - 0.0
19/07:40pm 10.1 8.6 3.0 61 3.1 CALM 0 4 0 2 - - 0.0
19/07:10pm 9.4 7.9 3.2 65 2.7 CALM 0 0 0 0 - - 0.0
19/07:00pm 9.7 7.8 3.0 63 3.0 SW 2 2 1 1 - - 0.0
19/06:50pm 10.1 8.6 3.1 62 3.1 CALM 0 2 0 1 - - 0.0
19/06:40pm 10.2 8.7 3.2 62 3.1 CALM 0 2 0 1 - - 0.0
19/06:30pm 10.5 9.0 2.9 59 3.4 CALM 0 2 0 1 - - 0.0
19/06:20pm 10.5 8.9 2.7 58 3.4 CALM 0 0 0 0 - - 0.0
19/06:10pm 10.8 9.3 2.8 57 3.5 CALM 0 0 0 0 - - 0.0
19/06:00pm 11.1 9.5 2.5 55 3.8 CALM 0 4 0 2 - - 0.0
19/05:50pm 11.6 10.0 2.3 53 4.1 CALM 0 2 0 1 - - 0.0
19/05:40pm 12.0 10.4 2.5 52 4.2 CALM 0 4 0 2 - - 0.0
19/05:30pm 12.7 10.8 2.6 50 4.5 SSW 2 4 1 2 - - 0.0
19/05:20pm 13.4 11.5 3.0 49 4.7 W 2 6 1 3 - - 0.0
19/05:10pm 13.7 11.8 2.9 48 4.9 WSW 2 7 1 4 - - 0.0
19/04:40pm 12.7 10.9 3.3 52 4.3 S 2 6 1 3 - - 0.0
19/04:30pm 12.9 11.0 3.0 51 4.5 SW 2 6 1 3 - - 0.0
19/04:20pm 13.3 11.4 2.9 49 4.7 W 2 7 1 4 - - 0.0
19/04:10pm 14.0 11.7 2.8 47 5.1 SSW 4 9 2 5 - - 0.0
19/04:00pm 13.5 11.1 2.4 47 5.0 SSW 4 11 2 6 - - 0.0
19/03:50pm 15.2 13.0 3.3 45 5.5 SSW 4 11 2 6 - - 0.0
19/03:40pm 16.8 13.4 -0.5 31 7.5 SW 7 15 4 8 - - 0.0
19/03:30pm 17.1 13.9 -0.3 30 7.6 SW 6 17 3 9 - - 0.0
19/03:20pm 17.3 13.9 -0.9 29 7.9 SW 7 20 4 11 - - 0.0
19/03:10pm 18.6 15.3 0.1 28 8.3 SW 7 15 4 8 - - 0.0
19/03:00pm 16.5 12.8 -0.3 32 7.3 SW 9 19 5 10 - - 0.0
19/02:50pm 17.1 13.5 0.3 32 7.5 SW 9 24 5 13 - - 0.0
19/02:40pm 14.8 11.2 0.9 39 6.1 SW 9 17 5 9 - - 0.0
19/02:20pm 15.3 12.0 -1.3 32 7.0 SW 6 17 3 9 - - 0.0
19/02:10pm 15.9 12.4 -1.7 30 7.4 SW 7 17 4 9 - - 0.0
19/02:00pm 17.2 13.7 -1.1 29 7.9 SW 7 17 4 9 - - 0.0
19/01:50pm 17.1 13.9 -0.7 30 7.7 SW 6 19 3 10 - - 0.0
19/01:40pm 15.7 12.3 -0.6 33 7.0 SW 7 15 4 8 - - 0.0
19/01:30pm 16.3 13.0 -0.2 32 7.2 SW 7 17 4 9 - - 0.0
19/01:20pm 15.7 12.3 -0.9 32 7.1 SW 7 17 4 9 - - 0.0
19/01:10pm 15.2 11.9 -1.0 33 6.9 SW 6 11 3 6 - - 0.0
19/01:00pm 15.1 11.9 -0.5 34 6.7 SW 6 11 3 6 - - 0.0
19/12:50pm 15.8 12.6 -0.7 32 7.1 SW 6 13 3 7 - - 0.0
19/12:40pm 18.2 14.7 -1.4 26 8.5 SW 7 19 4 10 - - 0.0
19/12:30pm 16.9 13.5 -0.9 29 7.7 SW 7 17 4 9 - - 0.0
19/12:20pm 15.1 11.6 -1.2 32 6.9 SW 7 15 4 8 - - 0.0
19/12:10pm 16.4 13.2 -0.7 31 7.4 SW 6 15 3 8 - - 0.0
19/12:00pm 15.8 12.6 -0.3 33 7.0 SW 6 13 3 7 - - 0.0
19/11:50am 15.9 12.8 -0.1 33 7.0 SW 6 15 3 8 - - 0.0
19/11:40am 16.1 13.0 0.3 34 6.9 SW 6 11 3 6 - - 0.0
19/11:30am 15.9 12.6 0.0 34 6.9 SW 7 17 4 9 - - 0.0
19/11:20am 15.7 12.7 0.5 35 6.7 SW 6 13 3 7 - - 0.0
19/11:10am 16.4 13.3 0.2 33 7.1 SW 6 15 3 8 - - 0.0
19/11:00am 16.5 13.3 1.0 35 6.9 SW 7 15 4 8 - - 0.0
19/10:50am 17.2 14.2 1.0 33 7.3 SW 6 17 3 9 - - 0.0
19/10:20am 14.1 11.0 1.4 42 5.6 SW 7 15 4 8 - - 0.0
19/10:00am 14.1 10.7 1.7 43 5.5 SW 9 24 5 13 - - 0.0
19/09:50am 14.6 11.6 1.9 42 5.7 SW 7 19 4 10 - - 0.0
19/09:40am 14.4 11.4 2.0 43 5.6 SW 7 15 4 8 - - 0.0
19/09:30am 14.1 10.7 1.9 43 5.5 SW 9 28 5 15 - - 0.0
19/09:20am 13.8 10.8 2.2 45 5.2 SW 7 13 4 7 - - 0.0
19/09:10am 13.0 9.7 2.4 48 4.7 SW 9 19 5 10 - - 0.0
19/09:00am 12.8 9.8 2.3 49 4.7 SW 7 13 4 7 - - 0.0
19/08:50am 11.0 8.1 2.4 55 3.8 SW 7 20 4 11 - - 0.0
19/08:40am 10.3 7.3 1.9 56 3.6 WSW 7 15 4 8 - - 0.0
19/08:30am 10.4 7.0 2.1 56 3.6 WSW 9 28 5 15 - - 0.0
19/08:20am 10.6 7.7 2.4 57 3.6 WSW 7 13 4 7 - - 0.0
19/08:10am 9.5 6.6 2.6 62 3.0 W 7 13 4 7 - - 0.0
19/08:00am 9.3 6.6 2.4 62 3.0 WSW 6 15 3 8 - - 0.0
19/07:50am 9.3 7.0 2.5 62 3.0 WSW 4 11 2 6 - - 0.0
19/07:40am 9.0 6.3 2.8 65 2.7 WSW 6 11 3 6 - - 0.0
19/07:30am 8.7 6.0 2.6 65 2.6 WSW 6 11 3 6 - - 0.0
19/07:20am 8.7 6.0 2.5 65 2.7 WSW 6 13 3 7 - - 0.0
19/07:10am 8.8 6.5 2.7 65 2.6 WSW 4 13 2 7 - - 0.0
19/07:00am 8.2 5.5 2.5 67 2.4 WSW 6 13 3 7 - - 0.0
19/06:50am 8.2 5.5 2.7 68 2.4 WSW 6 11 3 6 - - 0.0
19/06:30am 8.1 5.8 2.7 69 2.3 WSW 4 11 2 6 - - 0.0
19/06:20am 8.1 5.8 2.6 68 2.4 WSW 4 7 2 4 - - 0.0
19/06:10am 8.1 5.8 2.8 69 2.3 SW 4 7 2 4 - - 0.0
19/06:00am 8.2 5.9 2.8 69 2.3 SW 4 7 2 4 - - 0.0
19/05:50am 8.2 5.9 2.7 68 2.4 SW 4 9 2 5 - - 0.0
19/05:40am 8.2 5.9 3.0 70 2.3 SW 4 7 2 4 - - 0.0
19/05:30am 8.3 6.0 2.9 69 2.3 SW 4 9 2 5 - - 0.0
19/05:20am 8.5 6.2 3.0 68 2.4 SW 4 7 2 4 - - 0.0
19/05:10am 8.5 6.2 3.0 68 2.4 SW 4 15 2 8 - - 0.0
19/05:00am 8.5 5.9 3.0 68 2.4 WSW 6 11 3 6 - - 0.0
19/04:50am 8.5 5.9 3.0 68 2.4 WSW 6 11 3 6 - - 0.0
19/04:40am 8.4 5.8 3.1 69 2.3 WSW 6 13 3 7 - - 0.0
19/04:30am 8.5 5.9 3.2 69 2.3 WSW 6 13 3 7 - - 0.0
19/04:10am 8.4 5.9 3.9 73 2.0 W 6 19 3 10 - - 0.0
19/04:00am 8.4 6.3 4.1 74 1.9 WSW 4 9 2 5 - - 0.0
19/03:50am 8.3 6.2 4.0 74 1.9 WSW 4 6 2 3 - - 0.0
19/03:40am 8.4 6.3 3.8 73 2.0 WSW 4 9 2 5 - - 0.0
19/03:30am 8.3 6.2 4.0 74 1.9 WSW 4 7 2 4 - - 0.0
19/03:20am 8.4 6.3 4.0 74 2.0 W 4 9 2 5 - - 0.0
19/03:10am 8.3 6.3 4.3 76 1.8 W 4 7 2 4 - - 0.0
19/03:00am 8.5 6.5 4.3 75 1.9 W 4 7 2 4 - - 0.0
19/02:50am 8.7 6.7 4.3 74 2.0 W 4 9 2 5 - - 0.0
19/02:40am 8.8 6.8 4.5 74 1.9 W 4 9 2 5 - - 0.0
19/02:30am 9.0 6.7 4.8 75 1.9 WSW 6 9 3 5 - - 0.0
19/02:20am 9.2 6.9 5.0 75 1.9 WSW 6 7 3 4 - - 0.0
19/02:10am 9.4 7.6 5.2 75 1.9 WSW 4 7 2 4 - - 0.0
19/02:00am 9.6 7.8 5.5 75 1.9 WSW 4 9 2 5 - - 0.0
19/01:50am 9.6 7.9 5.7 76 1.8 WSW 4 6 2 3 - - 0.0
19/01:40am 9.5 8.2 6.1 79 1.6 WSW 2 6 1 3 - - 0.0
19/01:10am 10.0 9.3 7.0 81 1.5 CALM 0 2 0 1 - - 0.0
19/01:00am 10.3 9.3 7.2 81 1.5 S 2 6 1 3 - - 0.0
19/12:50am 10.3 9.3 7.4 82 1.4 SSE 2 7 1 4 - - 0.0
19/12:40am 10.3 9.7 7.4 82 1.4 CALM 0 4 0 2 - - 0.0
19/12:30am 10.4 9.8 7.5 82 1.4 CALM 0 2 0 1 - - 0.0
19/12:20am 10.4 9.4 7.4 82 1.5 E 2 4 1 2 - - 0.0
19/12:10am 10.4 9.8 7.4 82 1.5 CALM 0 2 0 1 - - 0.0
19/12:00am 10.5 9.5 7.3 80 1.6 E 2 4 1 2 - - 0.0
 
Date/Time
EST
Temp
°C
App
Temp
°C
Dew
Point
°C
Rel
Hum
%
Delta-T
°C
Wind Press
QNH
hPa
Press
MSL
hPa
Rain since
9am
mm
Dir  Spd
km/h
Gust
km/h
Spd
kts
Gust
kts
18/11:50pm 10.5 9.5 7.4 81 1.5 E 2 4 1 2 - - 0.0
18/11:40pm 10.6 9.6 7.5 81 1.5 ESE 2 6 1 3 - - 0.0
18/11:30pm 10.6 9.6 7.4 80 1.6 E 2 6 1 3 - - 0.0
18/11:20pm 10.6 9.6 7.3 80 1.6 SE 2 4 1 2 - - 0.0
18/11:10pm 10.6 10.0 7.6 82 1.5 CALM 0 4 0 2 - - 0.0
18/11:00pm 10.5 9.9 7.4 81 1.5 CALM 0 4 0 2 - - 0.0
18/10:50pm 10.5 9.9 7.4 81 1.5 CALM 0 2 0 1 - - 0.0
18/10:40pm 10.5 9.9 7.3 80 1.6 CALM 0 6 0 3 - - 0.0
18/10:30pm 10.6 10.0 7.4 80 1.6 CALM 0 0 0 0 - - 0.0
18/10:20pm 10.6 10.0 7.3 80 1.6 CALM 0 4 0 2 - - 0.0
18/10:10pm 10.4 9.8 7.3 81 1.5 CALM 0 2 0 1 - - 0.0
18/10:00pm 10.4 9.8 7.2 80 1.6 CALM 0 2 0 1 - - 0.0
18/09:50pm 10.5 9.9 7.2 80 1.6 CALM 0 2 0 1 - - 0.0
18/09:40pm 10.7 9.7 7.3 79 1.7 SW 2 4 1 2 - - 0.0
18/09:30pm 10.7 9.7 7.4 80 1.6 WSW 2 4 1 2 - - 0.0
18/09:20pm 10.7 9.7 7.3 79 1.7 WSW 2 6 1 3 - - 0.0
18/09:10pm 10.7 9.7 7.2 79 1.7 SW 2 6 1 3 - - 0.0
18/09:00pm 11.1 9.6 7.0 76 2.0 SW 4 7 2 4 - - 0.0
18/08:50pm 11.6 10.1 6.9 73 2.3 SW 4 9 2 5 - - 0.0
18/08:40pm 12.1 10.0 5.8 65 3.0 SW 6 11 3 6 - - 0.0
18/08:30pm 12.2 10.4 5.3 62 3.3 SW 4 11 2 6 - - 0.0
18/08:20pm 12.4 10.6 5.2 61 3.4 SW 4 15 2 8 - - 0.0
18/08:10pm 12.3 10.5 5.3 62 3.3 SW 4 11 2 6 - - 0.0
18/08:00pm 12.3 10.9 5.4 63 3.3 SSW 2 6 1 3 - - 0.0
18/07:50pm 12.6 10.4 5.3 61 3.5 SW 6 9 3 5 - - 0.0
18/07:40pm 12.8 11.0 5.2 60 3.6 SW 4 9 2 5 - - 0.0
18/07:30pm 13.3 11.3 4.5 55 4.1 SW 4 9 2 5 - - 0.0
18/07:20pm 13.5 11.4 4.0 52 4.4 WSW 4 9 2 5 - - 0.0
18/07:10pm 13.8 11.3 3.9 51 4.6 WNW 6 19 3 10 - - 0.0
18/07:00pm 13.9 11.4 3.8 50 4.7 W 6 15 3 8 - - 0.0
18/06:50pm 14.1 11.4 3.7 49 4.8 W 7 17 4 9 - - 0.0
18/06:40pm 14.4 11.3 3.4 47 5.1 WNW 9 20 5 11 - - 0.0
18/06:30pm 14.5 11.4 3.4 47 5.1 W 9 22 5 12 - - 0.0
18/06:20pm 14.5 11.7 3.4 47 5.1 WNW 7 20 4 11 - - 0.0
18/06:10pm 14.6 11.8 3.4 47 5.2 WNW 7 24 4 13 - - 0.0
18/06:00pm 14.8 11.3 3.6 47 5.2 WNW 11 30 6 16 - - 0.0
18/05:50pm 15.2 12.1 3.4 45 5.5 NW 9 28 5 15 - - 0.0
18/05:40pm 15.8 12.7 3.4 43 5.8 W 9 28 5 15 - - 0.0
18/05:30pm 15.9 12.9 3.9 44 5.7 WNW 9 37 5 20 - - 0.0
18/05:20pm 15.9 12.6 4.6 47 5.4 WNW 11 26 6 14 - - 0.0
18/05:10pm 15.8 13.0 5.0 48 5.2 NW 9 22 5 12 - - 0.0
18/05:00pm 15.6 12.8 5.1 49 5.1 W 9 28 5 15 - - 0.0
18/04:50pm 15.7 12.9 5.0 49 5.2 WNW 9 33 5 18 - - 0.0
18/04:40pm 15.2 12.4 5.0 50 4.9 W 9 28 5 15 - - 0.0
18/04:30pm 15.1 12.2 4.7 50 5.0 WNW 9 32 5 17 - - 0.0
18/04:20pm 14.6 11.7 4.5 50 4.8 WNW 9 30 5 16 - - 0.0
18/04:10pm 14.4 11.1 4.5 51 4.7 WNW 11 30 6 16 - - 0.0
18/04:00pm 15.0 11.5 3.5 46 5.4 WNW 11 28 6 15 - - 0.0
18/03:50pm 15.4 11.9 3.4 44 5.6 WNW 11 33 6 18 - - 0.0
18/03:40pm 16.2 12.5 2.5 39 6.3 W 11 28 6 15 - - 0.0
18/03:30pm 16.7 13.0 2.1 37 6.7 WSW 11 20 6 11 - - 0.0
18/03:20pm 17.3 12.9 0.4 32 7.5 WSW 13 26 7 14 - - 0.0
18/03:10pm 18.2 13.5 -1.8 25 8.6 WSW 13 32 7 17 - - 0.0
18/03:00pm 18.8 14.8 -2.2 24 9.0 W 9 26 5 14 - - 0.0
18/02:50pm 18.9 14.0 -3.0 22 9.2 W 13 37 7 20 - - 0.0
18/02:40pm 19.3 14.4 -3.8 20 9.6 W 13 33 7 18 - - 0.0
18/02:30pm 19.7 14.6 -5.2 18 10.1 W 13 33 7 18 - - 0.0
18/02:20pm 19.9 14.0 -6.0 17 10.4 W 17 43 9 23 - - 0.0
18/02:10pm 20.2 15.0 -6.2 16 10.6 W 13 37 7 20 - - 0.0
18/02:00pm 20.8 15.9 -6.7 15 11.0 WNW 11 30 6 16 - - 0.0
18/01:50pm 21.4 16.2 -6.3 15 11.2 W 13 35 7 19 - - 0.0
18/01:40pm 20.0 15.2 -6.1 16 10.4 W 11 35 6 19 - - 0.0
18/01:30pm 19.9 15.4 -6.7 16 10.5 NW 9 28 5 15 - - 0.0
18/01:20pm 19.9 15.4 -6.4 16 10.4 W 9 32 5 17 - - 0.0
18/01:10pm 19.6 14.7 -6.7 16 10.3 WNW 11 37 6 20 - - 0.0
18/12:40pm 19.4 14.7 -4.7 19 9.9 WNW 11 33 6 18 - - 0.0
18/12:30pm 19.5 15.2 -4.5 19 9.9 WNW 9 33 5 18 - - 0.0
18/12:20pm 19.5 14.9 -4.0 20 9.8 NW 11 33 6 18 - - 0.0
18/12:10pm 19.7 15.5 -3.7 20 9.8 NW 9 26 5 14 - - 0.0
18/12:00pm 19.6 15.5 -3.1 21 9.6 NW 9 28 5 15 - - 0.0
18/11:50am 20.5 16.3 -3.7 19 10.2 NNW 9 30 5 16 - - 0.0
18/11:40am 19.5 14.9 -4.1 20 9.8 W 11 30 6 16 - - 0.0
18/11:30am 19.2 14.6 -4.4 20 9.7 SSW 11 32 6 17 - - 0.0
18/11:20am 18.0 13.8 -4.2 21 9.0 WNW 9 28 5 15 - - 0.0
18/11:10am 17.8 13.3 -3.5 23 8.8 N 11 33 6 18 - - 0.0
18/11:00am 17.5 12.9 -3.7 23 8.7 NW 11 28 6 15 - - 0.0
18/10:50am 17.1 12.9 -4.0 23 8.6 WSW 9 26 5 14 - - 0.0
18/10:40am 17.3 13.1 -4.1 23 8.7 SSE 9 30 5 16 - - 0.0
18/10:30am 16.6 12.0 -4.5 23 8.4 S 11 26 6 14 - - 0.0
18/10:20am 16.3 11.7 -4.3 24 8.2 S 11 30 6 16 - - 0.0
18/10:10am 16.0 11.4 -4.4 24 8.1 SSE 11 32 6 17 - - 0.0
18/10:00am 16.1 11.9 -4.1 24 8.1 SSE 9 28 5 15 - - 0.0
18/09:50am 15.4 11.2 -4.2 25 7.8 SSW 9 30 5 16 - - 0.0
18/09:40am 14.8 10.2 -3.7 27 7.4 S 11 28 6 15 - - 0.0
18/09:30am 14.3 9.7 -3.7 28 7.1 SW 11 30 6 16 - - 0.0
18/09:20am 14.2 10.0 -3.5 29 7.0 WNW 9 32 5 17 - - 0.0
18/09:10am 13.8 9.6 -3.7 29 6.9 SSW 9 33 5 18 - - 0.0
18/09:00am 13.7 9.9 -3.7 29 6.9 WNW 7 22 4 12 - - 0.0
18/08:50am 13.6 9.4 -3.6 30 6.8 NNW 9 32 5 17 - - 0.0
18/08:40am 13.4 9.6 -3.7 30 6.7 NW 7 26 4 14 - - 0.0
18/08:30am 13.4 9.6 -3.7 30 6.7 WSW 7 28 4 15 - - 0.0

Other Formats:

Comma delimited format used in spreadsheet applications
http://www.bom.gov.au/fwo/IDV60801/IDV60801.99053.axf

JavaScript Object Notation format (JSON) in row-major order
http://www.bom.gov.au/fwo/IDV60801/IDV60801.99053.json